createdAt,value
2023-03-05T00:00:22.793Z,102200.0
2023-03-05T00:05:22.779Z,102190.0
2023-03-05T00:10:22.777Z,102190.0
2023-03-05T00:15:22.786Z,102190.0
2023-03-05T00:20:22.785Z,102180.0
2023-03-05T00:25:22.786Z,102180.0
2023-03-05T00:30:22.783Z,102180.0
2023-03-05T00:35:22.834Z,102170.0
2023-03-05T00:40:22.896Z,102170.0
2023-03-05T00:45:22.815Z,102160.0
2023-03-05T00:50:22.801Z,102160.0
2023-03-05T00:55:22.811Z,102150.0
2023-03-05T01:00:22.816Z,102150.0
2023-03-05T01:05:22.936Z,102150.0
2023-03-05T01:10:22.791Z,102140.0
2023-03-05T01:15:22.800Z,102130.0
2023-03-05T01:20:22.798Z,102120.0
2023-03-05T01:25:22.799Z,102130.0
2023-03-05T01:30:22.796Z,102120.0
2023-03-05T01:35:22.834Z,102120.0
2023-03-05T01:40:22.793Z,102120.0
2023-03-05T01:45:22.806Z,102120.0
2023-03-05T01:50:22.817Z,102100.0
2023-03-05T01:55:22.801Z,102090.0
2023-03-05T02:00:22.807Z,102090.0
2023-03-05T02:05:22.811Z,102080.0
2023-03-05T02:10:22.816Z,102070.0
2023-03-05T02:15:22.819Z,102060.0
2023-03-05T02:20:22.819Z,102050.0
2023-03-05T02:25:23.106Z,102040.0
2023-03-05T02:30:22.926Z,102040.0
2023-03-05T02:35:22.871Z,102030.0
2023-03-05T02:40:22.832Z,102020.0
2023-03-05T02:45:22.912Z,102010.0
2023-03-05T02:50:22.834Z,102010.0
2023-03-05T02:55:22.838Z,102000.0
2023-03-05T03:00:22.929Z,102000.0
2023-03-05T03:05:22.972Z,101990.0
2023-03-05T03:10:22.938Z,101990.0
2023-03-05T03:15:22.854Z,101980.0
2023-03-05T03:20:22.852Z,101970.0
2023-03-05T03:25:22.878Z,101960.0
2023-03-05T03:30:22.855Z,101950.0
2023-03-05T03:35:23.020Z,101950.0
2023-03-05T03:40:22.861Z,101950.0
2023-03-05T03:45:22.863Z,101950.0
2023-03-05T03:50:22.866Z,101950.0
2023-03-05T03:55:22.880Z,101950.0
2023-03-05T04:00:22.877Z,101940.0
2023-03-05T04:05:22.882Z,101940.0
2023-03-05T04:10:22.981Z,101930.0
2023-03-05T04:15:22.976Z,101920.0
2023-03-05T04:20:22.978Z,101920.0
2023-03-05T04:25:22.992Z,101910.0
2023-03-05T04:30:23.158Z,101910.0
2023-03-05T04:35:23.002Z,101900.0
2023-03-05T04:40:22.882Z,101900.0
2023-03-05T04:45:22.889Z,101900.0
2023-03-05T04:50:22.904Z,101910.0
2023-03-05T04:55:22.900Z,101900.0
2023-03-05T05:00:22.897Z,101890.0
2023-03-05T05:05:22.996Z,101890.0
2023-03-05T05:10:23.019Z,101880.0
2023-03-05T05:15:22.901Z,101870.0
2023-03-05T05:20:22.909Z,101870.0
2023-03-05T05:25:22.918Z,101870.0
2023-03-05T05:30:23.002Z,101860.0
2023-03-05T05:35:23.006Z,101860.0
2023-03-05T05:40:23.027Z,101860.0
2023-03-05T05:45:23.063Z,101860.0
2023-03-05T05:50:22.935Z,101850.0
2023-03-05T05:55:23.356Z,101840.0
2023-03-05T06:00:23.149Z,101830.0
2023-03-05T06:05:23.024Z,101830.0
2023-03-05T06:10:22.951Z,101830.0
2023-03-05T06:15:23.088Z,101840.0
2023-03-05T06:20:22.951Z,101830.0
2023-03-05T06:25:22.949Z,101840.0
2023-03-05T06:30:22.952Z,101830.0
2023-03-05T06:35:22.995Z,101820.0
2023-03-05T06:40:23.054Z,101830.0
2023-03-05T06:45:23.056Z,101820.0
2023-03-05T06:50:23.058Z,101830.0
2023-03-05T06:55:22.979Z,101830.0
2023-03-05T07:00:23.059Z,101830.0
2023-03-05T07:05:22.985Z,101840.0
2023-03-05T07:10:22.974Z,101830.0
2023-03-05T07:15:22.971Z,101820.0
2023-03-05T07:20:22.967Z,101820.0
2023-03-05T07:25:22.967Z,101820.0
2023-03-05T07:30:22.982Z,101820.0
2023-03-05T07:35:23.058Z,101810.0
2023-03-05T07:40:23.010Z,101810.0
2023-03-05T07:45:22.990Z,101810.0
2023-03-05T07:50:22.989Z,101810.0
2023-03-05T07:55:22.990Z,101800.0
2023-03-05T08:00:22.997Z,101800.0
2023-03-05T08:05:23.000Z,101800.0
2023-03-05T08:10:22.998Z,101800.0
2023-03-05T08:15:23.167Z,101790.0
2023-03-05T08:20:23.102Z,101780.0
2023-03-05T08:25:23.106Z,101780.0
2023-03-05T08:30:23.118Z,101780.0
2023-03-05T08:35:23.260Z,101780.0
2023-03-05T08:40:23.117Z,101770.0
2023-03-05T08:45:23.115Z,101770.0
2023-03-05T08:50:23.183Z,101770.0
2023-03-05T08:55:23.131Z,101770.0
2023-03-05T09:00:23.512Z,101750.0
2023-03-05T09:05:23.152Z,101750.0
2023-03-05T09:10:23.233Z,101760.0
2023-03-05T09:15:23.136Z,101740.0
2023-03-05T09:20:23.370Z,101740.0
2023-03-05T09:25:23.155Z,101740.0
2023-03-05T09:30:23.145Z,101720.0
2023-03-05T09:35:23.205Z,101720.0
2023-03-05T09:40:23.255Z,101720.0
2023-03-05T09:45:23.150Z,101720.0
2023-03-05T09:50:23.155Z,101720.0
2023-03-05T09:55:23.162Z,101710.0
2023-03-05T10:00:23.165Z,101710.0
2023-03-05T10:05:23.163Z,101710.0
2023-03-05T10:10:23.181Z,101700.0
2023-03-05T10:15:23.175Z,101690.0
2023-03-05T10:20:23.175Z,101690.0
2023-03-05T10:25:23.185Z,101700.0
2023-03-05T10:30:23.178Z,101690.0
2023-03-05T10:35:23.456Z,101690.0
2023-03-05T10:40:23.209Z,101700.0
2023-03-05T10:45:23.180Z,101690.0
2023-03-05T10:50:23.189Z,101680.0
2023-03-05T10:55:23.192Z,101670.0
2023-03-05T11:00:23.189Z,101660.0
2023-03-05T11:05:23.189Z,101660.0
2023-03-05T11:10:23.193Z,101660.0
2023-03-05T11:15:23.200Z,101650.0
2023-03-05T11:20:23.197Z,101640.0
2023-03-05T11:25:23.198Z,101640.0
2023-03-05T11:30:23.214Z,101620.0
2023-03-05T11:35:23.222Z,101620.0
2023-03-05T11:40:23.210Z,101620.0
2023-03-05T11:45:23.231Z,101620.0
2023-03-05T11:50:23.225Z,101610.0
2023-03-05T11:55:23.233Z,101590.0
2023-03-05T12:00:23.228Z,101580.0
2023-03-05T12:05:23.236Z,101560.0
2023-03-05T12:10:23.243Z,101550.0
2023-03-05T12:15:23.246Z,101550.0
2023-03-05T12:20:23.301Z,101530.0
2023-03-05T12:25:23.255Z,101530.0
2023-03-05T12:30:25.107Z,101520.0
2023-03-05T12:35:23.398Z,101520.0
2023-03-05T12:40:23.263Z,101510.0
2023-03-05T12:45:23.278Z,101500.0
2023-03-05T12:50:23.274Z,101500.0
2023-03-05T12:55:23.294Z,101480.0
2023-03-05T13:00:23.277Z,101470.0
2023-03-05T13:05:23.302Z,101460.0
2023-03-05T13:10:23.267Z,101440.0
2023-03-05T13:15:23.274Z,101440.0
2023-03-05T13:20:23.280Z,101440.0
2023-03-05T13:25:23.280Z,101430.0
2023-03-05T13:30:23.290Z,101420.0
2023-03-05T13:35:23.375Z,101420.0
2023-03-05T13:40:23.287Z,101420.0
2023-03-05T13:45:23.293Z,101400.0
2023-03-05T13:50:23.301Z,101400.0
2023-03-05T13:55:23.299Z,101390.0
2023-03-05T14:00:23.299Z,101390.0
2023-03-05T14:05:23.294Z,101370.0
2023-03-05T14:10:23.307Z,101370.0
2023-03-05T14:15:23.311Z,101360.0
2023-03-05T14:20:23.306Z,101360.0
2023-03-05T14:25:23.310Z,101360.0
2023-03-05T14:30:23.331Z,101350.0
2023-03-05T14:35:23.352Z,101340.0
2023-03-05T14:40:23.337Z,101340.0
2023-03-05T14:45:23.352Z,101330.0
2023-03-05T14:50:23.348Z,101310.0
2023-03-05T14:55:23.336Z,101300.0
2023-03-05T15:00:23.338Z,101300.0
2023-03-05T15:05:23.340Z,101300.0
2023-03-05T15:10:23.334Z,101290.0
2023-03-05T15:15:23.335Z,101290.0
2023-03-05T15:20:23.339Z,101280.0
2023-03-05T15:25:23.345Z,101280.0
2023-03-05T15:30:23.373Z,101280.0
2023-03-05T15:35:23.383Z,101270.0
2023-03-05T15:40:23.347Z,101250.0
2023-03-05T15:45:23.349Z,101250.0
2023-03-05T15:50:23.359Z,101240.0
2023-03-05T15:55:23.351Z,101240.0
2023-03-05T16:00:25.983Z,101230.0
2023-03-05T16:05:23.359Z,101220.0
2023-03-05T16:10:23.379Z,101220.0
2023-03-05T16:15:23.366Z,101210.0
2023-03-05T16:20:23.386Z,101200.0
2023-03-05T16:25:23.374Z,101200.0
2023-03-05T16:30:23.380Z,101190.0
2023-03-05T16:35:23.429Z,101190.0
2023-03-05T16:40:23.381Z,101180.0
2023-03-05T16:45:23.376Z,101190.0
2023-03-05T16:50:23.380Z,101180.0
2023-03-05T16:55:23.389Z,101180.0
2023-03-05T17:00:23.389Z,101170.0
2023-03-05T17:05:23.391Z,101170.0
2023-03-05T17:10:23.389Z,101180.0
2023-03-05T17:15:23.408Z,101170.0
2023-03-05T17:20:23.397Z,101170.0
2023-03-05T17:25:23.405Z,101170.0
2023-03-05T17:30:23.400Z,101170.0
2023-03-05T17:35:23.451Z,101160.0
2023-03-05T17:40:23.405Z,101160.0
2023-03-05T17:45:23.481Z,101160.0
2023-03-05T17:50:23.409Z,101160.0
2023-03-05T17:55:23.407Z,101160.0
2023-03-05T18:00:23.411Z,101160.0
2023-03-05T18:05:23.428Z,101150.0
2023-03-05T18:10:23.417Z,101150.0
2023-03-05T18:15:23.427Z,101160.0
2023-03-05T18:20:23.420Z,101140.0
2023-03-05T18:25:23.423Z,101150.0
2023-03-05T18:30:23.420Z,101150.0
2023-03-05T18:35:23.493Z,101140.0
2023-03-05T18:40:23.428Z,101130.0
2023-03-05T18:45:23.434Z,101130.0
2023-03-05T18:50:23.472Z,101130.0
2023-03-05T18:55:23.446Z,101130.0
2023-03-05T19:00:23.435Z,101120.0
2023-03-05T19:05:23.444Z,101120.0
2023-03-05T19:10:23.466Z,101120.0
2023-03-05T19:15:23.449Z,101110.0
2023-03-05T19:20:23.350Z,101110.0
2023-03-05T19:25:23.465Z,101110.0
2023-03-05T19:30:23.469Z,101110.0
2023-03-05T19:35:23.381Z,101100.0
2023-03-05T19:40:23.356Z,101090.0
2023-03-05T19:45:23.360Z,101080.0
2023-03-05T19:50:23.384Z,101080.0
2023-03-05T19:55:23.361Z,101080.0
2023-03-05T20:00:23.377Z,101080.0
2023-03-05T20:05:23.376Z,101070.0
2023-03-05T20:10:23.366Z,101070.0
2023-03-05T20:15:23.381Z,101060.0
2023-03-05T20:20:23.383Z,101060.0
2023-03-05T20:25:23.379Z,101060.0
2023-03-05T20:30:23.380Z,101060.0
2023-03-05T20:35:23.410Z,101050.0
2023-03-05T20:40:23.386Z,101040.0
2023-03-05T20:45:23.389Z,101040.0
2023-03-05T20:50:23.509Z,101040.0
2023-03-05T20:55:23.399Z,101030.0
2023-03-05T21:00:23.399Z,101030.0
2023-03-05T21:05:23.400Z,101010.0
2023-03-05T21:10:23.573Z,101000.0
2023-03-05T21:15:23.408Z,101010.0
2023-03-05T21:20:23.409Z,101000.0
2023-03-05T21:25:23.420Z,100990.0
2023-03-05T21:30:23.415Z,100990.0
2023-03-05T21:35:23.461Z,100980.0
2023-03-05T21:40:23.421Z,100970.0
2023-03-05T21:45:23.427Z,100990.0
2023-03-05T21:50:23.426Z,100970.0
2023-03-05T21:55:23.422Z,100970.0
2023-03-05T22:00:23.420Z,100960.0
2023-03-05T22:05:23.604Z,100970.0
2023-03-05T22:10:23.423Z,100960.0
2023-03-05T22:15:23.436Z,100950.0
2023-03-05T22:20:23.433Z,100950.0
2023-03-05T22:25:23.691Z,100940.0
2023-03-05T22:40:23.525Z,100920.0
2023-03-05T22:45:23.447Z,100920.0
2023-03-05T22:50:23.443Z,100910.0
2023-03-05T22:55:23.442Z,100910.0
2023-03-05T23:00:23.802Z,100900.0
2023-03-05T23:05:23.454Z,100890.0
2023-03-05T23:10:27.125Z,100880.0
2023-03-05T23:15:23.465Z,100880.0
2023-03-05T23:20:23.556Z,100860.0
2023-03-05T23:25:23.576Z,100870.0
2023-03-05T23:30:23.485Z,100860.0
2023-03-05T23:35:23.636Z,100860.0
2023-03-05T23:40:23.565Z,100850.0
2023-03-05T23:45:23.469Z,100850.0
2023-03-05T23:50:23.470Z,100850.0
2023-03-05T23:55:23.568Z,100850.0
